Time;durP1;ratioP1;P1;durP2;ratioP2;P2;SDS_P1;SDS_P2;PMS_P1;PMS_P2;Temp;Humidity;BMP_temperature;BMP_pressure;BME280_temperature;BME280_humidity;BME280_pressure;Samples;Min_cycle;Max_cycle;Signal;HPM_P1;HPM_P2
2021/07/14 00:01:58;;;;;;;13.65;10.68;;;23.80;90.10;;;;;;4982541;28;20046;-91
2021/07/14 00:04:24;;;;;;;13.70;10.73;;;23.70;90.20;;;;;;4966444;28;20041;-92
2021/07/14 00:06:50;;;;;;;16.85;11.02;;;23.70;90.30;;;;;;4964719;28;20070;-91
2021/07/14 00:09:16;;;;;;;16.58;11.75;;;23.70;90.40;;;;;;4959584;28;20133;-91
2021/07/14 00:11:46;;;;;;;16.85;11.30;;;23.60;90.40;;;;;;4965219;28;20039;-92
2021/07/14 00:17:29;;;;;;;15.82;11.48;;;23.60;90.60;;;;;;4983439;28;20059;-91
2021/07/14 00:22:14;;;;;;;17.60;14.15;;;23.50;90.70;;;;;;4977136;28;20069;-91
2021/07/14 00:24:40;;;;;;;23.48;14.80;;;23.50;90.90;;;;;;4958204;28;20130;-91
2021/07/14 00:27:08;;;;;;;19.92;13.75;;;23.50;91.00;;;;;;4957831;28;20106;-91
2021/07/14 00:29:37;;;;;;;18.70;14.90;;;23.50;91.10;;;;;;4957937;28;20046;-91
2021/07/14 00:32:06;;;;;;;20.95;14.88;;;23.50;91.30;;;;;;4957943;28;20038;-91
2021/07/14 00:34:33;;;;;;;19.95;14.55;;;23.50;91.30;;;;;;4958057;28;20121;-91
2021/07/14 00:36:59;;;;;;;21.90;14.27;;;23.50;91.50;;;;;;4957806;28;20043;-91
2021/07/14 00:39:25;;;;;;;15.50;13.73;;;23.50;91.60;;;;;;4974859;28;20038;-92
2021/07/14 00:41:51;;;;;;;15.93;12.23;;;23.50;91.70;;;;;;4957762;28;20035;-91
2021/07/14 00:44:16;;;;;;;15.50;11.50;;;23.50;91.80;;;;;;4957584;28;20038;-91
2021/07/14 00:46:46;;;;;;;13.63;11.63;;;23.50;92.00;;;;;;4957945;28;20556;-91
2021/07/14 00:49:13;;;;;;;14.75;12.10;;;23.40;92.00;;;;;;4957677;28;20046;-91
2021/07/14 00:51:40;;;;;;;14.35;11.05;;;23.50;92.20;;;;;;4974860;28;20042;-91
2021/07/14 00:54:05;;;;;;;11.88;10.40;;;23.40;92.30;;;;;;4957556;28;20549;-91
2021/07/14 00:56:31;;;;;;;13.15;10.52;;;23.40;92.30;;;;;;4957390;28;20122;-91
2021/07/14 00:58:58;;;;;;;13.25;11.18;;;23.40;92.40;;;;;;4957703;28;20475;-91
2021/07/14 01:01:24;;;;;;;12.60;10.70;;;23.40;92.70;;;;;;4974649;28;20118;-90
2021/07/14 01:04:08;;;;;;;17.08;11.65;;;23.40;92.80;;;;;;4957562;28;20051;-91
2021/07/14 01:06:43;;;;;;;;;;;23.40;92.90;;;;;;4957772;28;20095;-91
2021/07/14 01:09:10;;;;;;;11.98;10.40;;;23.40;94.20;;;;;;4957607;28;19945;-91
2021/07/14 01:11:38;;;;;;;13.73;11.55;;;23.40;93.30;;;;;;4973110;28;20045;-91
2021/07/14 01:14:09;;;;;;;11.73;10.55;;;23.50;93.70;;;;;;4957563;28;20045;-91
2021/07/14 01:16:40;;;;;;;12.65;11.32;;;23.40;93.50;;;;;;4957522;28;20489;-91
2021/07/14 01:19:43;;;;;;;13.23;11.85;;;23.40;93.80;;;;;;4957782;28;20038;-91
2021/07/14 01:22:22;;;;;;;14.15;11.70;;;23.50;93.90;;;;;;4971098;28;20125;-91
2021/07/14 01:25:01;;;;;;;12.88;10.18;;;23.50;93.90;;;;;;4959860;28;20565;-91
2021/07/14 01:27:34;;;;;;;13.50;12.10;;;23.50;93.80;;;;;;4979321;28;20081;-90
2021/07/14 01:30:01;;;;;;;14.32;11.48;;;23.50;94.70;;;;;;4964050;28;20039;-91
2021/07/14 01:32:29;;;;;;;14.45;12.32;;;23.50;94.60;;;;;;4963414;28;20035;-91
2021/07/14 01:35:02;;;;;;;14.73;13.18;;;23.50;94.70;;;;;;4964597;28;20035;-91
2021/07/14 01:37:29;;;;;;;14.52;13.00;;;23.60;95.30;;;;;;4961038;28;20046;-91
2021/07/14 01:39:58;;;;;;;16.45;12.25;;;23.60;95.30;;;;;;4978523;28;20034;-91
2021/07/14 01:42:26;;;;;;;14.75;11.93;;;23.60;95.30;;;;;;4960709;28;20039;-92
2021/07/14 01:44:55;;;;;;;16.05;13.15;;;23.60;95.40;;;;;;4960695;28;20066;-91
2021/07/14 01:47:22;;;;;;;16.83;13.60;;;23.60;95.60;;;;;;4977494;28;20065;-91
2021/07/14 01:49:50;;;;;;;16.02;14.32;;;23.60;95.70;;;;;;4960644;28;20525;-91
2021/07/14 01:52:18;;;;;;;14.77;13.13;;;23.60;95.90;;;;;;4960230;28;20455;-91
2021/07/14 01:54:47;;;;;;;13.57;12.20;;;23.60;96.20;;;;;;4960422;28;20496;-92
2021/07/14 01:57:14;;;;;;;13.43;11.85;;;23.60;95.90;;;;;;4960291;28;20182;-92
2021/07/14 01:59:41;;;;;;;15.77;13.98;;;23.60;95.90;;;;;;4959929;28;20043;-92
2021/07/14 02:02:09;;;;;;;15.38;13.07;;;23.60;96.10;;;;;;4960025;28;20063;-91
2021/07/14 02:04:38;;;;;;;14.68;12.52;;;23.60;96.10;;;;;;4960394;28;20482;-92
2021/07/14 02:07:11;;;;;;;15.32;13.38;;;23.60;96.30;;;;;;4960035;28;20038;-91
2021/07/14 02:09:39;;;;;;;14.48;11.45;;;23.60;96.40;;;;;;4978665;28;20065;-91
2021/07/14 02:12:18;;;;;;;15.35;13.75;;;23.60;96.30;;;;;;4966595;28;20132;-91
2021/07/14 02:14:57;;;;;;;13.57;12.13;;;23.60;96.40;;;;;;4984376;28;20035;-91
2021/07/14 02:17:27;;;;;;;14.15;12.65;;;23.60;96.40;;;;;;4965850;28;20090;-90
2021/07/14 02:20:03;;;;;;;15.20;12.93;;;23.60;96.40;;;;;;4966811;28;20039;-91
2021/07/14 02:22:29;;;;;;;15.18;13.20;;;23.60;96.40;;;;;;4964446;28;20046;-91
2021/07/14 02:24:57;;;;;;;15.25;12.85;;;23.60;96.50;;;;;;4976901;28;20561;-91
2021/07/14 02:27:22;;;;;;;13.98;10.93;;;23.70;96.50;;;;;;4959737;28;20042;-91
2021/07/14 02:29:48;;;;;;;11.93;10.73;;;23.60;96.30;;;;;;4959696;28;20035;-91
2021/07/14 02:32:18;;;;;;;11.90;10.18;;;23.70;96.30;;;;;;4960077;28;20397;-92
2021/07/14 02:34:47;;;;;;;13.60;10.23;;;23.70;96.20;;;;;;4959268;28;20038;-91
2021/07/14 02:37:16;;;;;;;10.27;8.63;;;23.70;96.00;;;;;;4958641;28;20057;-91
2021/07/14 02:39:47;;;;;;;9.80;8.35;;;23.70;96.10;;;;;;4959714;28;20133;-91
2021/07/14 02:42:27;;;;;;;10.05;8.32;;;23.80;95.60;;;;;;4959944;28;20034;-91
2021/07/14 02:44:53;;;;;;;10.02;8.05;;;23.80;95.40;;;;;;4976730;28;20055;-91
2021/07/14 02:47:21;;;;;;;9.00;8.07;;;23.80;95.10;;;;;;4976173;28;20089;-91
2021/07/14 02:49:48;;;;;;;8.63;7.65;;;23.90;94.90;;;;;;4976339;28;20058;-91
2021/07/14 02:52:14;;;;;;;8.30;6.80;;;24.00;94.80;;;;;;4959572;28;20042;-92
2021/07/14 02:54:43;;;;;;;8.73;7.82;;;24.00;94.60;;;;;;4959057;28;20050;-91
2021/07/14 02:57:13;;;;;;;8.73;7.82;;;24.10;94.50;;;;;;4959459;28;20035;-91
2021/07/14 02:59:43;;;;;;;7.85;6.93;;;24.10;94.30;;;;;;4959642;28;20038;-91
2021/07/14 03:02:10;;;;;;;8.82;6.90;;;24.20;94.20;;;;;;4959158;28;20557;-91
2021/07/14 03:04:39;;;;;;;7.68;6.97;;;24.20;94.00;;;;;;4976636;28;20035;-91
2021/07/14 03:07:07;;;;;;;8.38;7.50;;;24.20;93.90;;;;;;4975939;28;20034;-91
2021/07/14 03:09:38;;;;;;;7.88;7.10;;;24.30;93.80;;;;;;4976038;28;20041;-91
2021/07/14 03:12:13;;;;;;;7.82;6.93;;;24.40;93.70;;;;;;4958900;28;20046;-91
2021/07/14 03:14:49;;;;;;;7.30;6.47;;;24.50;93.50;;;;;;4960685;28;20031;-91
2021/07/14 03:17:16;;;;;;;7.38;6.68;;;24.50;93.40;;;;;;4961986;28;20038;-92
2021/07/14 03:19:44;;;;;;;7.80;6.53;;;24.60;93.30;;;;;;4962154;28;20115;-91
2021/07/14 03:22:10;;;;;;;7.55;6.85;;;24.60;93.20;;;;;;4976908;28;20098;-91
2021/07/14 03:24:37;;;;;;;7.57;6.88;;;24.70;93.10;;;;;;4959090;28;20042;-91
2021/07/14 03:27:05;;;;;;;8.50;7.60;;;24.70;93.00;;;;;;4958795;28;20556;-92
2021/07/14 03:29:33;;;;;;;8.93;8.02;;;24.80;92.90;;;;;;4975960;28;20039;-91
2021/07/14 03:32:01;;;;;;;10.23;8.52;;;24.90;92.90;;;;;;4958768;28;20039;-91
2021/07/14 03:34:27;;;;;;;11.05;9.95;;;25.00;92.90;;;;;;4958672;28;20039;-91
2021/07/14 03:36:53;;;;;;;8.93;8.02;;;25.00;92.90;;;;;;4975656;28;20039;-91
2021/07/14 03:39:20;;;;;;;9.15;8.18;;;25.00;92.80;;;;;;4958655;28;20031;-91
2021/07/14 03:41:48;;;;;;;10.93;8.50;;;25.10;92.80;;;;;;4958317;28;20042;-91
2021/07/14 03:44:17;;;;;;;9.43;8.35;;;25.20;92.80;;;;;;4958473;28;20039;-91
2021/07/14 03:46:44;;;;;;;9.82;8.82;;;25.30;92.70;;;;;;4975110;28;20034;-91
2021/07/14 03:49:13;;;;;;;10.68;9.57;;;25.30;92.60;;;;;;4958385;28;20042;-92
2021/07/14 03:51:41;;;;;;;10.77;8.93;;;25.30;92.60;;;;;;4958394;28;20121;-92
2021/07/14 03:54:07;;;;;;;9.95;8.70;;;25.40;92.50;;;;;;4958111;28;20394;-92
2021/07/14 03:56:32;;;;;;;12.50;9.20;;;25.50;92.50;;;;;;4958129;28;20569;-91
2021/07/14 03:58:59;;;;;;;9.05;8.18;;;25.50;92.30;;;;;;4958270;28;20042;-91
2021/07/14 04:01:25;;;;;;;9.52;8.63;;;25.60;92.20;;;;;;4958283;28;20047;-91
2021/07/14 04:03:53;;;;;;;10.05;9.02;;;25.60;92.10;;;;;;4957799;28;20479;-92
2021/07/14 04:06:20;;;;;;;9.45;8.55;;;25.70;92.00;;;;;;4958044;28;20050;-91
2021/07/14 04:09:09;;;;;;;11.20;9.57;;;25.80;91.90;;;;;;4957857;28;20042;-91
2021/07/14 04:11:35;;;;;;;9.70;8.80;;;25.80;91.80;;;;;;4958867;28;20096;-91
2021/07/14 04:14:00;;;;;;;8.80;7.90;;;25.90;91.90;;;;;;4964078;28;20125;-91
2021/07/14 04:16:27;;;;;;;9.52;8.43;;;25.90;91.50;;;;;;4962079;28;20046;-91
2021/07/14 04:18:53;;;;;;;11.48;9.02;;;26.00;91.50;;;;;;4962315;28;20066;-91
2021/07/14 04:21:18;;;;;;;10.40;8.98;;;26.10;91.40;;;;;;4974762;28;20023;-91
2021/07/14 04:23:44;;;;;;;8.43;7.65;;;26.10;91.20;;;;;;4976158;28;20097;-90
2021/07/14 04:26:10;;;;;;;10.52;9.30;;;26.20;91.10;;;;;;4980122;28;20043;-90
2021/07/14 04:28:35;;;;;;;10.13;8.95;;;26.30;91.00;;;;;;4966152;28;20043;-92
2021/07/14 04:31:01;;;;;;;8.40;7.60;;;26.30;90.80;;;;;;4962256;28;20035;-93
2021/07/14 04:33:27;;;;;;;11.07;8.35;;;26.40;90.60;;;;;;4960256;28;20034;-91
2021/07/14 04:35:52;;;;;;;9.65;8.75;;;26.50;90.40;;;;;;4958679;28;20093;-91
2021/07/14 04:38:18;;;;;;;8.52;7.65;;;26.60;90.10;;;;;;4957911;28;20034;-92
2021/07/14 04:40:44;;;;;;;9.77;8.88;;;26.60;89.80;;;;;;4957911;28;20125;-92
2021/07/14 04:43:10;;;;;;;9.32;8.48;;;26.70;89.40;;;;;;4958621;28;20031;-93
2021/07/14 04:45:37;;;;;;;8.57;7.68;;;26.70;89.00;;;;;;4958233;28;20035;-93
2021/07/14 04:48:03;;;;;;;10.55;9.00;;;26.70;88.50;;;;;;4958718;28;20062;-92
2021/07/14 04:50:29;;;;;;;11.13;7.60;;;26.80;87.70;;;;;;4957988;28;20118;-92
2021/07/14 04:52:55;;;;;;;7.95;7.25;;;26.80;87.20;;;;;;4958079;28;20038;-93
2021/07/14 04:55:21;;;;;;;7.65;6.90;;;26.90;87.30;;;;;;4957903;28;20042;-93
2021/07/14 04:57:47;;;;;;;15.70;7.55;;;27.00;86.70;;;;;;4958706;28;20031;-92
2021/07/14 05:00:16;;;;;;;7.38;6.65;;;27.10;85.50;;;;;;4961393;28;20071;-92
2021/07/14 05:02:45;;;;;;;8.75;7.47;;;27.20;85.00;;;;;;4961090;28;20055;-92
2021/07/14 05:05:15;;;;;;;9.40;7.60;;;27.30;84.70;;;;;;4961014;28;20094;-92
2021/07/14 05:07:41;;;;;;;7.47;6.70;;;27.50;84.30;;;;;;4961887;28;20101;-93
2021/07/14 05:10:08;;;;;;;6.80;6.10;;;27.50;83.70;;;;;;4961743;28;20101;-92
2021/07/14 05:12:34;;;;;;;8.05;7.28;;;27.60;83.40;;;;;;4978958;28;20031;-92
2021/07/14 05:15:00;;;;;;;8.15;7.13;;;27.80;83.10;;;;;;4978805;28;20027;-92
2021/07/14 05:17:26;;;;;;;7.53;6.82;;;27.90;82.60;;;;;;4961794;28;20089;-92
2021/07/14 05:19:53;;;;;;;8.63;6.93;;;28.00;82.80;;;;;;4961909;28;20035;-93
2021/07/14 05:22:20;;;;;;;8.27;7.30;;;28.10;81.80;;;;;;4961082;28;20070;-93
2021/07/14 05:24:46;;;;;;;10.77;7.45;;;28.10;81.20;;;;;;4961649;28;20030;-94
2021/07/14 05:27:12;;;;;;;8.43;7.63;;;28.20;80.90;;;;;;4960857;28;20053;-92
2021/07/14 05:29:38;;;;;;;11.43;7.80;;;28.30;80.60;;;;;;4961583;28;20110;-92
2021/07/14 05:32:04;;;;;;;7.97;7.18;;;28.30;80.10;;;;;;4961632;28;20113;-92
2021/07/14 05:34:30;;;;;;;7.90;7.07;;;28.30;79.70;;;;;;4978590;28;20031;-92
2021/07/14 05:36:56;;;;;;;8.73;6.80;;;28.40;79.60;;;;;;4961380;28;20039;-92
2021/07/14 05:39:22;;;;;;;10.50;7.10;;;28.40;79.10;;;;;;4961527;28;20092;-92
2021/07/14 05:41:48;;;;;;;7.22;6.53;;;28.50;78.80;;;;;;4960876;28;20432;-92
2021/07/14 05:44:14;;;;;;;8.30;7.38;;;28.50;78.60;;;;;;4960931;28;20090;-91
2021/07/14 05:46:40;;;;;;;7.00;6.28;;;28.50;78.60;;;;;;4960563;28;20046;-92
2021/07/14 05:49:06;;;;;;;7.13;6.43;;;28.60;78.50;;;;;;4978308;28;20039;-92
2021/07/14 05:51:33;;;;;;;7.68;6.97;;;28.70;78.00;;;;;;4962095;28;20039;-93
2021/07/14 05:53:59;;;;;;;8.30;7.13;;;28.90;77.40;;;;;;4961169;28;20042;-92
2021/07/14 05:56:26;;;;;;;9.38;7.47;;;29.10;76.80;;;;;;4961175;28;20070;-91
2021/07/14 05:58:52;;;;;;;8.07;7.28;;;29.20;76.30;;;;;;4960999;28;20042;-92
2021/07/14 06:01:18;;;;;;;7.72;5.93;;;29.30;75.80;;;;;;4961402;28;20047;-93
2021/07/14 06:03:47;;;;;;;6.25;5.65;;;29.50;74.50;;;;;;4961291;28;20058;-91
2021/07/14 06:06:14;;;;;;;7.00;6.07;;;29.60;74.10;;;;;;4960721;28;20043;-92
2021/07/14 06:08:40;;;;;;;7.03;6.32;;;29.70;73.90;;;;;;4961204;28;20039;-92
2021/07/14 06:11:09;;;;;;;6.68;5.97;;;29.70;73.30;;;;;;4960457;28;20069;-92
2021/07/14 06:13:35;;;;;;;6.30;5.70;;;29.80;73.00;;;;;;4960992;28;20031;-93
2021/07/14 06:16:01;;;;;;;5.88;5.28;;;29.90;72.40;;;;;;4960277;28;20043;-92
2021/07/14 06:18:27;;;;;;;5.38;4.88;;;30.00;71.70;;;;;;4961798;28;20042;-91
2021/07/14 06:20:53;;;;;;;6.38;5.78;;;30.10;71.50;;;;;;4964527;28;20035;-91
2021/07/14 06:23:19;;;;;;;6.57;5.97;;;30.30;71.20;;;;;;4968842;28;20497;-92
2021/07/14 06:25:45;;;;;;;6.53;5.57;;;30.40;70.70;;;;;;4972507;28;20039;-91
2021/07/14 06:28:13;;;;;;;7.07;6.40;;;30.50;70.20;;;;;;4971281;28;20098;-92
2021/07/14 06:30:43;;;;;;;6.47;5.85;;;30.50;69.70;;;;;;4969761;28;20044;-93
2021/07/14 06:33:14;;;;;;;6.55;5.90;;;30.60;69.50;;;;;;4987835;28;20034;-92
2021/07/14 06:35:40;;;;;;;7.47;6.03;;;30.60;69.20;;;;;;4964154;28;20043;-92
2021/07/14 06:38:06;;;;;;;7.60;6.90;;;30.60;68.40;;;;;;4962753;28;20059;-92
2021/07/14 06:40:37;;;;;;;6.13;5.55;;;30.40;68.00;;;;;;4962329;28;20372;-92
2021/07/14 06:43:06;;;;;;;6.63;5.72;;;30.40;68.30;;;;;;4959799;28;20043;-93
2021/07/14 06:45:32;;;;;;;6.45;5.85;;;30.40;68.00;;;;;;4961024;28;20086;-94
2021/07/14 06:47:58;;;;;;;5.82;5.32;;;30.40;68.00;;;;;;4977974;28;20038;-93
2021/07/14 06:50:24;;;;;;;6.25;5.65;;;30.50;67.90;;;;;;4960460;28;20035;-94
2021/07/14 06:52:49;;;;;;;7.53;5.40;;;30.60;67.60;;;;;;4959950;28;20070;-93
2021/07/14 06:55:15;;;;;;;5.47;5.00;;;30.70;67.40;;;;;;4960278;28;20031;-93
2021/07/14 06:57:42;;;;;;;5.85;5.28;;;30.80;67.20;;;;;;4977368;28;20031;-91
2021/07/14 07:00:10;;;;;;;5.65;5.15;;;31.00;66.60;;;;;;4958557;28;20073;-92
2021/07/14 07:02:37;;;;;;;6.43;5.70;;;31.00;66.10;;;;;;4959257;28;20158;-94
2021/07/14 07:05:03;;;;;;;5.60;5.10;;;31.10;66.00;;;;;;4958463;28;20039;-94
2021/07/14 07:07:29;;;;;;;5.70;5.20;;;31.20;65.70;;;;;;4958951;28;20039;-93
2021/07/14 07:09:55;;;;;;;5.50;5.00;;;31.30;65.40;;;;;;4961619;28;20069;-91
2021/07/14 07:12:21;;;;;;;5.50;4.72;;;31.40;65.10;;;;;;4959659;28;20045;-90
2021/07/14 07:14:46;;;;;;;5.30;4.80;;;31.50;65.00;;;;;;4959261;28;20035;-93
2021/07/14 07:17:12;;;;;;;6.32;5.72;;;31.60;64.30;;;;;;4959378;28;20048;-92
2021/07/14 07:19:38;;;;;;;6.00;5.50;;;31.60;63.50;;;;;;4959060;28;20046;-93
2021/07/14 07:22:04;;;;;;;6.45;5.85;;;31.60;63.30;;;;;;4958512;28;20078;-91
2021/07/14 07:24:32;;;;;;;7.28;6.55;;;31.60;63.10;;;;;;4978472;28;20035;-91
2021/07/14 07:26:58;;;;;;;6.03;5.20;;;31.60;63.40;;;;;;4976658;28;20135;-91
2021/07/14 07:29:24;;;;;;;9.15;5.93;;;31.60;63.30;;;;;;4962642;28;20070;-91
2021/07/14 07:31:51;;;;;;;8.63;5.45;;;31.60;63.20;;;;;;4964603;28;20042;-91
2021/07/14 07:34:18;;;;;;;5.80;5.30;;;31.60;62.30;;;;;;4981418;28;20142;-92
2021/07/14 07:36:45;;;;;;;5.88;5.38;;;31.70;62.20;;;;;;4961675;28;20030;-92
2021/07/14 07:39:11;;;;;;;5.57;5.07;;;31.60;61.00;;;;;;4958550;28;20043;-91
2021/07/14 07:41:37;;;;;;;7.10;5.35;;;31.60;61.10;;;;;;4961903;28;20122;-91
2021/07/14 07:44:06;;;;;;;6.15;5.55;;;31.50;61.20;;;;;;4958325;28;20552;-91
2021/07/14 07:46:33;;;;;;;6.10;5.50;;;31.50;60.60;;;;;;4974914;28;20038;-91
2021/07/14 07:48:59;;;;;;;7.15;5.70;;;31.50;59.70;;;;;;4957616;28;20053;-92
2021/07/14 07:51:25;;;;;;;7.50;6.07;;;31.40;59.00;;;;;;4974389;28;20035;-91
2021/07/14 07:53:53;;;;;;;7.28;5.75;;;31.30;58.70;;;;;;4975045;28;20049;-93
2021/07/14 07:56:19;;;;;;;5.93;5.32;;;31.20;58.40;;;;;;4958809;28;20090;-90
2021/07/14 07:58:45;;;;;;;5.22;4.70;;;31.20;58.70;;;;;;4957804;28;20030;-92
2021/07/14 08:01:11;;;;;;;6.00;5.50;;;31.20;58.60;;;;;;4957561;28;20143;-91
2021/07/14 08:03:40;;;;;;;6.40;5.78;;;31.20;59.00;;;;;;4975350;28;20051;-92
2021/07/14 08:06:06;;;;;;;5.47;4.97;;;31.20;58.60;;;;;;4975346;28;20042;-92
2021/07/14 08:08:33;;;;;;;7.90;4.38;;;31.20;58.90;;;;;;4957392;28;20047;-91
2021/07/14 08:10:59;;;;;;;6.65;5.70;;;31.40;58.60;;;;;;4975728;28;20030;-91
2021/07/14 08:13:28;;;;;;;5.88;5.18;;;31.50;58.70;;;;;;4958802;28;20031;-94
2021/07/14 08:15:57;;;;;;;6.15;5.55;;;31.60;58.40;;;;;;4960434;28;20035;-91
2021/07/14 08:18:23;;;;;;;5.18;4.75;;;31.70;57.80;;;;;;4978617;28;20038;-93
2021/07/14 08:21:12;;;;;;;5.93;5.30;;;31.80;57.60;;;;;;4962656;28;20042;-91
2021/07/14 08:23:38;;;;;;;6.82;6.18;;;31.90;57.60;;;;;;4952080;28;20047;-92
2021/07/14 08:26:04;;;;;;;7.30;5.43;;;32.00;57.70;;;;;;4957744;28;20031;-91
2021/07/14 08:28:30;;;;;;;6.40;5.80;;;32.10;57.10;;;;;;4980689;28;20387;-91
2021/07/14 08:30:55;;;;;;;6.15;5.55;;;32.20;56.90;;;;;;4964138;28;20045;-91
2021/07/14 08:33:24;;;;;;;5.82;5.22;;;32.30;56.00;;;;;;4985208;28;20085;-92
2021/07/14 08:35:50;;;;;;;6.13;5.50;;;32.30;56.20;;;;;;4973637;28;20081;-93
2021/07/14 08:38:19;;;;;;;5.00;4.35;;;32.30;56.00;;;;;;4972879;28;20042;-89
2021/07/14 08:40:58;;;;;;;4.90;4.50;;;32.40;56.80;;;;;;4974045;28;20081;-92
2021/07/14 08:43:32;;;;;;;5.00;4.55;;;32.50;56.20;;;;;;4968798;28;20577;-91
2021/07/14 08:46:02;;;;;;;6.20;5.60;;;32.60;55.80;;;;;;4976119;28;20054;-91
2021/07/14 08:48:31;;;;;;;5.20;4.70;;;32.70;55.00;;;;;;4969460;28;20101;-94
2021/07/14 08:51:10;;;;;;;5.13;4.57;;;32.70;55.00;;;;;;4969462;28;20038;-91
2021/07/14 08:53:39;;;;;;;8.80;4.75;;;32.70;54.50;;;;;;4973936;28;20042;-90
2021/07/14 08:56:05;;;;;;;6.10;4.93;;;32.70;54.30;;;;;;4970714;28;20518;-91
2021/07/14 08:58:31;;;;;;;5.20;4.70;;;32.70;54.30;;;;;;4966903;28;20082;-91
2021/07/14 09:01:03;;;;;;;5.43;4.93;;;32.70;53.30;;;;;;4965622;28;20134;-91
2021/07/14 09:03:30;;;;;;;5.70;4.78;;;32.70;52.80;;;;;;4968069;28;20055;-90
2021/07/14 09:06:02;;;;;;;5.03;4.53;;;32.70;53.00;;;;;;4966563;28;20046;-92
2021/07/14 09:08:28;;;;;;;5.30;4.77;;;32.80;52.40;;;;;;4964355;28;20082;-91
2021/07/14 09:10:57;;;;;;;6.28;5.03;;;32.90;53.00;;;;;;4966499;28;20484;-92
2021/07/14 09:13:50;;;;;;;5.68;5.03;;;32.90;53.00;;;;;;4971042;28;20139;-92
2021/07/14 09:16:47;;;;;;;5.50;5.00;;;32.90;53.00;;;;;;4965928;28;20043;-92
2021/07/14 09:19:14;;;;;;;8.43;5.97;;;32.90;53.00;;;;;;4980998;28;20474;-93
2021/07/14 09:21:41;;;;;;;6.10;5.50;;;33.00;53.20;;;;;;4963182;28;20069;-93
2021/07/14 09:24:31;;;;;;;5.95;5.45;;;33.00;53.10;;;;;;4960768;28;20039;-92
2021/07/14 09:27:01;;;;;;;6.63;6.03;;;33.00;52.80;;;;;;4961704;29;20035;-92
2021/07/14 09:29:27;;;;;;;8.77;5.85;;;33.00;53.00;;;;;;4944803;29;20035;-91
2021/07/14 09:31:55;;;;;;;7.18;6.47;;;33.00;53.20;;;;;;4961561;29;20126;-93
2021/07/14 09:34:32;;;;;;;6.43;5.82;;;33.00;53.10;;;;;;4950022;29;20039;-93
2021/07/14 09:37:03;;;;;;;6.18;5.65;;;33.10;52.40;;;;;;4957453;28;20508;-93
2021/07/14 09:39:35;;;;;;;5.80;5.30;;;33.10;52.90;;;;;;4968911;28;20035;-93
2021/07/14 09:42:08;;;;;;;6.72;5.70;;;33.20;52.80;;;;;;4965788;28;20038;-93
2021/07/14 09:44:57;;;;;;;6.25;5.72;;;33.20;52.60;;;;;;4962886;28;20042;-91
2021/07/14 09:47:24;;;;;;;6.35;5.75;;;33.20;52.60;;;;;;4949219;29;20051;-93
2021/07/14 09:49:51;;;;;;;7.38;5.72;;;33.20;52.30;;;;;;4973024;28;20069;-93
2021/07/14 09:52:20;;;;;;;7.68;6.32;;;33.20;52.10;;;;;;4967318;28;20039;-94
2021/07/14 09:54:47;;;;;;;6.22;5.63;;;33.20;51.80;;;;;;4951586;29;20049;-92
2021/07/14 09:57:19;;;;;;;5.90;5.30;;;33.20;51.60;;;;;;4948441;29;20106;-93
2021/07/14 09:59:47;;;;;;;6.13;5.53;;;33.30;51.70;;;;;;4932819;28;20082;-93
2021/07/14 10:02:16;;;;;;;6.10;5.60;;;33.30;51.70;;;;;;4980543;28;20069;-92
2021/07/14 10:04:44;;;;;;;6.43;5.65;;;33.50;51.80;;;;;;4966685;28;20160;-91
2021/07/14 10:07:26;;;;;;;6.28;5.68;;;33.50;51.80;;;;;;4963588;28;20075;-92
2021/07/14 10:09:54;;;;;;;6.13;4.80;;;33.50;51.80;;;;;;4951334;29;20403;-94
2021/07/14 10:12:35;;;;;;;5.82;5.32;;;33.60;51.70;;;;;;4959751;29;20046;-92
2021/07/14 10:15:19;;;;;;;6.18;5.57;;;33.70;51.40;;;;;;4942420;29;20031;-92
2021/07/14 10:17:50;;;;;;;5.75;5.25;;;33.70;51.30;;;;;;4977158;28;20043;-93
2021/07/14 10:20:24;;;;;;;5.85;5.35;;;33.70;51.20;;;;;;4983159;28;20041;-93
2021/07/14 10:22:50;;;;;;;4.93;4.47;;;33.60;51.10;;;;;;4979036;28;20058;-91
2021/07/14 10:25:19;;;;;;;5.45;4.95;;;33.60;50.80;;;;;;4993811;28;20035;-93
2021/07/14 10:27:46;;;;;;;5.68;5.10;;;33.70;51.50;;;;;;4991396;28;20054;-93
2021/07/14 10:30:16;;;;;;;5.10;4.60;;;33.70;50.80;;;;;;4985125;28;20073;-94
2021/07/14 10:32:42;;;;;;;6.65;5.13;;;33.70;50.80;;;;;;4966346;28;20050;-92
2021/07/14 10:35:17;;;;;;;4.80;4.40;;;33.70;50.80;;;;;;4945100;28;20042;-93
2021/07/14 10:37:56;;;;;;;5.20;4.70;;;33.70;50.40;;;;;;4966306;28;20045;-93
2021/07/14 10:40:23;;;;;;;5.43;4.93;;;33.70;50.00;;;;;;4987251;28;20058;-94
2021/07/14 10:42:50;;;;;;;7.57;5.10;;;33.70;50.30;;;;;;4974851;28;20041;-94
2021/07/14 10:45:17;;;;;;;5.47;5.00;;;33.70;50.60;;;;;;4975590;28;20038;-93
2021/07/14 10:47:48;;;;;;;7.35;5.18;;;33.70;50.60;;;;;;5004735;28;20069;-94
2021/07/14 10:50:15;;;;;;;7.13;5.45;;;33.70;50.40;;;;;;4965302;28;20107;-94
2021/07/14 10:52:41;;;;;;;5.43;4.82;;;33.80;50.20;;;;;;4961820;28;20058;-93
2021/07/14 10:55:22;;;;;;;4.80;4.40;;;33.80;50.10;;;;;;4961466;28;20035;-92
2021/07/14 10:57:50;;;;;;;5.15;4.65;;;33.90;50.30;;;;;;4958503;28;20093;-93
2021/07/14 11:00:17;;;;;;;5.10;4.60;;;34.00;50.10;;;;;;4941286;28;20043;-93
2021/07/14 11:05:45;;;;;;;6.38;4.22;;;34.00;49.80;;;;;;5168045;27;20448;-92
2021/07/14 11:08:31;;;;;;;5.05;4.40;;;34.00;49.60;;;;;;5118152;28;20420;-92
2021/07/14 11:11:03;;;;;;;4.95;4.53;;;34.00;49.30;;;;;;5140469;27;20072;-93
2021/07/14 11:13:34;;;;;;;4.63;4.22;;;34.00;49.10;;;;;;5131364;28;20092;-93
2021/07/14 11:16:32;;;;;;;4.05;3.75;;;34.00;49.10;;;;;;5136864;28;20051;-92
2021/07/14 11:19:09;;;;;;;5.50;4.65;;;33.90;49.00;;;;;;5162275;27;20047;-93
2021/07/14 11:22:00;;;;;;;4.30;3.90;;;33.90;48.80;;;;;;5129115;28;20557;-93
2021/07/14 11:24:49;;;;;;;5.13;3.90;;;34.00;48.40;;;;;;5134945;28;20024;-93
2021/07/14 11:27:27;;;;;;;3.60;3.30;;;33.90;48.40;;;;;;5138372;28;20055;-91
2021/07/14 11:30:02;;;;;;;3.55;3.25;;;33.90;47.60;;;;;;5139429;27;20046;-93
2021/07/14 11:32:34;;;;;;;4.10;3.70;;;34.00;47.40;;;;;;5137212;27;20057;-94
2021/07/14 11:35:02;;;;;;;5.03;3.67;;;33.90;47.30;;;;;;5138207;28;20027;-93
2021/07/14 11:37:34;;;;;;;4.78;3.58;;;33.90;47.30;;;;;;5135795;27;20028;-95
2021/07/14 11:40:38;;;;;;;3.50;3.15;;;33.90;47.20;;;;;;5137443;28;20101;-93
2021/07/14 11:43:10;;;;;;;3.95;3.55;;;34.00;46.60;;;;;;5137833;28;20065;-90
2021/07/14 11:45:43;;;;;;;3.63;3.33;;;34.00;46.80;;;;;;5140767;27;20035;-92
2021/07/14 11:48:17;;;;;;;5.80;3.20;;;33.90;46.30;;;;;;5134611;28;20027;-93
2021/07/14 11:50:42;;;;;;;3.90;3.60;;;33.90;46.80;;;;;;5135313;27;20030;-93
2021/07/14 11:53:30;;;;;;;4.15;3.40;;;33.90;46.30;;;;;;5134200;27;20378;-92
2021/07/14 11:56:05;;;;;;;3.40;3.10;;;33.90;45.90;;;;;;5134650;27;20015;-94
2021/07/14 11:58:54;;;;;;;3.10;2.85;;;33.90;45.80;;;;;;5135701;27;20091;-94
2021/07/14 12:01:24;;;;;;;3.55;3.25;;;34.00;45.10;;;;;;5134192;28;20038;-93
2021/07/14 12:04:01;;;;;;;3.42;3.10;;;34.00;45.40;;;;;;5134486;27;20086;-89
2021/07/14 12:06:45;;;;;;;4.13;3.20;;;34.10;45.10;;;;;;5132396;27;20022;-92
2021/07/14 12:09:14;;;;;;;3.10;2.90;;;34.20;44.10;;;;;;5133967;28;20057;-90
2021/07/14 12:11:52;;;;;;;3.47;2.80;;;34.40;44.70;;;;;;5135087;27;20026;-92
2021/07/14 12:14:20;;;;;;;3.20;2.92;;;34.50;44.20;;;;;;5133933;28;20035;-91
2021/07/14 12:16:53;;;;;;;4.47;3.42;;;34.70;44.10;;;;;;5119217;28;20050;-91
2021/07/14 12:19:21;;;;;;;3.67;2.88;;;34.90;43.70;;;;;;5115817;28;20135;-90
2021/07/14 12:21:48;;;;;;;3.15;2.85;;;35.20;43.50;;;;;;5119343;28;20024;-92
2021/07/14 12:24:34;;;;;;;3.13;2.90;;;35.50;43.20;;;;;;5119568;27;20055;-91
2021/07/14 12:27:09;;;;;;;3.65;2.85;;;35.90;43.10;;;;;;5121575;28;20066;-91
2021/07/14 12:29:37;;;;;;;3.35;3.05;;;36.20;43.40;;;;;;5120859;28;20036;-92
2021/07/14 12:32:04;;;;;;;4.38;3.20;;;36.60;42.70;;;;;;5107102;28;20025;-91
2021/07/14 12:34:32;;;;;;;2.60;2.40;;;36.90;42.70;;;;;;5098729;28;20054;-91
2021/07/14 12:36:59;;;;;;;3.70;2.67;;;37.20;42.80;;;;;;5099908;28;20035;-91
2021/07/14 12:39:35;;;;;;;2.97;2.78;;;37.60;42.30;;;;;;5098762;28;20036;-91
2021/07/14 12:42:06;;;;;;;5.05;2.92;;;38.00;42.10;;;;;;5111679;28;20514;-94
2021/07/14 12:44:33;;;;;;;2.70;2.50;;;38.30;41.20;;;;;;5115978;28;20051;-92
2021/07/14 12:47:17;;;;;;;3.10;2.80;;;38.70;40.90;;;;;;5125877;27;20099;-93
2021/07/14 12:49:44;;;;;;;4.18;2.80;;;39.00;40.20;;;;;;5128131;28;20030;-93
2021/07/14 12:52:23;;;;;;;2.80;2.60;;;39.30;40.40;;;;;;5124591;28;20041;-91
2021/07/14 12:54:55;;;;;;;2.72;2.53;;;39.60;39.60;;;;;;5126871;28;20053;-93
2021/07/14 12:57:24;;;;;;;6.03;2.90;;;39.80;39.80;;;;;;5127143;28;20024;-93
2021/07/14 13:00:28;;;;;;;4.10;2.63;;;40.00;39.20;;;;;;5120215;28;20056;-92
2021/07/14 13:03:02;;;;;;;2.85;2.65;;;40.30;37.30;;;;;;5119548;28;20035;-93
2021/07/14 13:05:31;;;;;;;3.40;2.42;;;40.40;38.20;;;;;;5119500;28;20040;-94